Time;durP1;ratioP1;P1;durP2;ratioP2;P2;SDS_P1;SDS_P2;PMS_P1;PMS_P2;Temp;Humidity;BMP_temperature;BMP_pressure;BME280_temperature;BME280_humidity;BME280_pressure;Samples;Min_cycle;Max_cycle;Signal;HPM_P1;HPM_P2
2023/08/25 00:00:19;;;;;;;7.53;5.57;;;;;;;24.28;80.56;99472.34;4937669;28;20504;-88
2023/08/25 00:02:46;;;;;;;7.20;5.57;;;;;;;24.30;80.43;99480.22;4907036;28;20498;-87
2023/08/25 00:05:13;;;;;;;13.73;6.43;;;;;;;24.26;80.59;99475.28;4922814;28;20126;-88
2023/08/25 00:07:40;;;;;;;5.93;5.20;;;;;;;24.26;80.71;99482.59;4925776;28;20047;-87
2023/08/25 00:10:07;;;;;;;10.70;5.40;;;;;;;24.26;80.57;99472.56;4943140;28;20134;-88
2023/08/25 00:12:34;;;;;;;8.70;5.47;;;;;;;24.25;80.43;99479.06;4920532;28;20134;-88
2023/08/25 00:15:02;;;;;;;9.55;5.40;;;;;;;24.24;80.03;99479.28;4902625;28;20071;-87
2023/08/25 00:17:29;;;;;;;11.48;5.55;;;;;;;24.21;80.52;99480.56;4910255;28;20515;-88
2023/08/25 00:19:56;;;;;;;9.55;5.93;;;;;;;24.18;80.21;99483.75;4909556;28;20122;-87
2023/08/25 00:22:23;;;;;;;9.38;5.55;;;;;;;24.18;80.35;99485.66;4911490;28;20066;-87
2023/08/25 00:24:50;;;;;;;9.02;5.50;;;;;;;24.17;80.18;99494.84;4901859;28;20058;-88
2023/08/25 00:27:17;;;;;;;9.05;4.85;;;;;;;24.15;80.31;99486.13;4921665;28;20043;-87
2023/08/25 00:29:44;;;;;;;8.70;5.07;;;;;;;24.16;80.15;99491.31;4936921;28;20036;-88
2023/08/25 00:32:11;;;;;;;11.45;5.32;;;;;;;24.14;80.47;99493.41;4927981;28;20071;-88
2023/08/25 00:34:37;;;;;;;8.90;4.40;;;;;;;24.11;79.92;99493.06;4949421;28;20057;-88
2023/08/25 00:37:06;;;;;;;6.90;4.78;;;;;;;24.09;79.91;99484.31;4892136;29;20118;-87
2023/08/25 00:39:33;;;;;;;7.70;4.43;;;;;;;24.07;79.76;99483.72;4923465;28;20578;-87
2023/08/25 00:42:00;;;;;;;10.90;5.32;;;;;;;24.04;79.76;99485.88;4932529;28;20047;-87
2023/08/25 00:44:27;;;;;;;7.78;5.13;;;;;;;24.04;79.59;99485.88;4903233;28;20039;-87
2023/08/25 00:46:54;;;;;;;7.35;4.65;;;;;;;24.03;79.61;99488.81;4920790;28;20051;-88
2023/08/25 00:49:22;;;;;;;5.90;4.90;;;;;;;24.01;79.48;99477.34;4919209;29;20079;-87
2023/08/25 00:51:51;;;;;;;6.65;4.60;;;;;;;24.01;79.49;99485.50;4909213;28;20435;-87
2023/08/25 00:54:20;;;;;;;6.30;4.22;;;;;;;23.98;79.18;99481.34;4910565;28;20113;-87
2023/08/25 00:56:48;;;;;;;8.63;3.80;;;;;;;23.97;79.30;99479.72;4905081;28;20160;-86
2023/08/25 00:59:15;;;;;;;7.85;3.95;;;;;;;23.94;79.49;99472.06;4899572;28;20047;-88
2023/08/25 01:01:41;;;;;;;8.57;4.28;;;;;;;23.95;79.53;99476.41;4911481;28;20049;-87
2023/08/25 01:04:08;;;;;;;7.90;4.82;;;;;;;23.92;79.72;99474.16;4914113;28;20061;-87
2023/08/25 01:06:35;;;;;;;11.88;5.20;;;;;;;23.93;79.86;99486.66;4927508;28;20054;-87
2023/08/25 01:09:04;;;;;;;7.18;3.90;;;;;;;23.92;79.32;99482.28;4929011;28;20055;-87
2023/08/25 01:11:44;;;;;;;7.78;4.47;;;;;;;23.86;78.94;99483.19;4894633;28;20044;-87
2023/08/25 01:14:23;;;;;;;5.90;3.70;;;;;;;23.79;78.81;99483.31;4908405;28;20051;-88
2023/08/25 01:16:57;;;;;;;5.68;3.97;;;;;;;23.78;78.96;99483.53;4915936;28;20055;-87
2023/08/25 01:19:51;;;;;;;7.88;4.45;;;;;;;23.74;78.71;99482.38;4917497;28;20067;-87
2023/08/25 01:22:37;;;;;;;5.15;3.60;;;;;;;23.69;79.09;99479.47;4905751;29;20452;-88
2023/08/25 01:25:26;;;;;;;8.10;3.95;;;;;;;23.68;79.00;99472.41;4923596;28;20279;-89
2023/08/25 01:27:55;;;;;;;10.63;4.55;;;;;;;23.75;78.81;99463.13;4923383;28;20488;-86
2023/08/25 01:30:23;;;;;;;9.00;4.55;;;;;;;23.73;78.99;99462.53;4941317;28;21677;-88
2023/08/25 01:32:53;;;;;;;5.68;4.95;;;;;;;23.74;79.02;99449.84;4897208;28;20047;-88
2023/08/25 01:35:29;;;;;;;6.80;4.43;;;;;;;23.71;78.84;99448.38;4893737;28;20043;-88
2023/08/25 01:38:17;;;;;;;7.85;4.40;;;;;;;23.68;79.56;99456.94;4937881;28;20053;-88
2023/08/25 01:40:50;;;;;;;10.68;4.40;;;;;;;23.69;79.39;99455.91;4930263;28;20054;-86
2023/08/25 01:43:21;;;;;;;7.75;5.00;;;;;;;23.69;79.62;99455.91;4910349;28;20578;-88
2023/08/25 01:45:48;;;;;;;6.85;5.70;;;;;;;23.71;79.62;99459.22;4908149;28;20786;-87
2023/08/25 01:48:16;;;;;;;11.35;5.40;;;;;;;23.71;80.08;99447.53;4907515;29;20149;-88
2023/08/25 01:50:43;;;;;;;13.27;6.45;;;;;;;23.69;80.19;99457.78;4922845;28;20492;-88
2023/08/25 01:53:10;;;;;;;8.40;6.35;;;;;;;23.69;80.55;99460.50;4925428;28;20515;-88
2023/08/25 01:55:37;;;;;;;10.82;6.63;;;;;;;23.68;80.36;99461.53;4915480;28;21056;-88
2023/08/25 01:58:04;;;;;;;11.18;5.50;;;;;;;23.68;80.40;99462.38;4919668;28;20058;-88
2023/08/25 02:00:31;;;;;;;18.27;7.18;;;;;;;23.66;80.71;99463.66;4883783;28;20039;-88
2023/08/25 02:02:58;;;;;;;19.40;8.60;;;;;;;23.64;80.93;99469.31;4910651;28;20060;-88
2023/08/25 02:05:25;;;;;;;14.60;8.95;;;;;;;23.65;80.98;99472.84;4910550;28;20054;-88
2023/08/25 02:07:52;;;;;;;14.13;9.07;;;;;;;23.64;81.43;99449.53;4904060;28;20495;-88
2023/08/25 02:10:20;;;;;;;10.73;8.38;;;;;;;23.63;81.90;99459.53;4925124;29;20048;-88
2023/08/25 02:12:46;;;;;;;10.85;8.88;;;;;;;23.60;81.79;99473.53;4909103;28;20052;-88
2023/08/25 02:15:13;;;;;;;12.65;8.48;;;;;;;23.63;81.83;99467.66;4907523;28;20066;-87
2023/08/25 02:17:40;;;;;;;13.40;7.45;;;;;;;23.60;81.71;99462.69;4912377;28;20076;-88
2023/08/25 02:20:08;;;;;;;13.85;8.60;;;;;;;23.60;81.87;99452.69;4922905;29;20803;-88
2023/08/25 02:22:36;;;;;;;17.80;9.23;;;;;;;23.60;81.96;99452.69;4926455;28;20123;-88
2023/08/25 02:25:04;;;;;;;16.42;8.73;;;;;;;23.59;82.16;99451.03;4904120;28;20095;-88
2023/08/25 02:27:31;;;;;;;12.23;7.55;;;;;;;23.59;82.08;99450.22;4925487;28;20118;-89
2023/08/25 02:29:58;;;;;;;16.33;8.00;;;;;;;23.55;81.96;99457.13;4906668;28;20595;-88
2023/08/25 02:32:25;;;;;;;10.20;7.65;;;;;;;23.50;81.48;99454.28;4904894;28;20229;-88
2023/08/25 02:34:54;;;;;;;10.15;7.03;;;;;;;23.51;81.21;99464.91;4927242;28;20504;-89
2023/08/25 02:37:21;;;;;;;8.02;6.35;;;;;;;23.47;80.70;99457.47;4959426;28;20074;-88
2023/08/25 02:39:48;;;;;;;11.73;6.50;;;;;;;23.48;80.57;99464.53;4911589;28;20043;-88
2023/08/25 02:42:15;;;;;;;8.23;5.70;;;;;;;23.46;80.09;99451.22;4912338;29;20043;-88
2023/08/25 02:44:42;;;;;;;7.70;6.13;;;;;;;23.43;79.96;99448.94;4910172;28;20216;-88
2023/08/25 02:47:09;;;;;;;9.57;6.03;;;;;;;23.45;80.11;99459.56;4898374;28;20056;-87
2023/08/25 02:49:38;;;;;;;10.63;5.78;;;;;;;23.46;80.06;99450.38;4928547;28;20047;-88
2023/08/25 02:52:05;;;;;;;14.32;6.18;;;;;;;23.43;79.85;99440.00;4909120;29;20064;-88
2023/08/25 02:54:32;;;;;;;8.35;5.47;;;;;;;23.43;79.84;99434.59;4907434;28;20118;-88
2023/08/25 02:56:59;;;;;;;6.55;3.80;;;;;;;23.42;79.30;99441.06;4895317;29;20141;-88
2023/08/25 02:59:26;;;;;;;6.05;4.43;;;;;;;23.40;78.92;99452.13;4957858;28;20056;-88
2023/08/25 03:01:53;;;;;;;8.02;4.57;;;;;;;23.36;78.57;99438.22;4923606;28;20063;-88
2023/08/25 03:04:20;;;;;;;8.23;5.00;;;;;;;23.35;78.66;99438.44;4938500;28;20047;-88
2023/08/25 03:06:49;;;;;;;6.93;4.20;;;;;;;23.33;78.48;99432.41;4925491;28;20609;-88
2023/08/25 03:09:17;;;;;;;7.45;4.00;;;;;;;23.32;78.74;99415.34;4889875;28;20558;-88
2023/08/25 03:11:43;;;;;;;8.88;4.32;;;;;;;23.31;78.34;99413.69;4921649;28;20043;-87
2023/08/25 03:14:10;;;;;;;12.52;4.57;;;;;;;23.29;78.19;99418.50;4923263;28;20518;-88
2023/08/25 03:17:11;;;;;;;5.03;4.15;;;;;;;23.22;78.17;99409.63;4922556;28;20063;-88
2023/08/25 03:19:38;;;;;;;6.63;4.50;;;;;;;23.28;78.37;99410.59;4907492;28;20052;-88
2023/08/25 03:22:05;;;;;;;8.38;4.35;;;;;;;23.29;78.46;99404.16;4940055;28;20720;-87
2023/08/25 03:24:34;;;;;;;8.40;4.35;;;;;;;23.23;78.13;99399.63;4938788;28;20103;-88
2023/08/25 03:27:01;;;;;;;4.68;3.80;;;;;;;23.22;78.17;99392.56;4939544;28;20107;-88
2023/08/25 03:29:28;;;;;;;3.35;2.92;;;;;;;23.21;78.24;99399.88;4941433;28;20083;-87
2023/08/25 03:31:55;;;;;;;5.18;3.90;;;;;;;23.23;78.40;99407.75;4946056;28;20389;-89
2023/08/25 03:34:22;;;;;;;6.68;3.58;;;;;;;23.19;78.65;99402.81;4934644;28;20062;-88
2023/08/25 03:36:48;;;;;;;6.32;4.28;;;;;;;23.18;78.98;99394.91;4939764;28;20055;-88
2023/08/25 03:39:16;;;;;;;7.43;3.80;;;;;;;23.18;79.00;99395.75;4926069;28;20491;-88
2023/08/25 03:41:43;;;;;;;5.35;3.53;;;;;;;23.16;78.85;99383.47;4927032;28;20054;-88
2023/08/25 03:44:10;;;;;;;11.13;3.92;;;;;;;23.17;78.63;99393.25;4941852;28;20057;-88
2023/08/25 03:46:37;;;;;;;8.35;3.78;;;;;;;23.15;78.90;99395.34;4893724;28;20051;-88
2023/08/25 03:49:06;;;;;;;7.28;4.00;;;;;;;23.15;78.76;99382.66;4897785;28;20045;-88
2023/08/25 03:51:32;;;;;;;5.55;3.95;;;;;;;23.14;78.98;99391.00;4939500;28;20050;-87
2023/08/25 03:53:59;;;;;;;10.43;3.90;;;;;;;23.14;79.13;99380.16;4939038;28;20077;-88
2023/08/25 03:56:26;;;;;;;8.98;4.00;;;;;;;23.10;78.81;99366.28;4927950;28;20043;-88
2023/08/25 03:58:54;;;;;;;6.68;4.07;;;;;;;23.10;79.17;99355.44;4898186;28;20109;-89
2023/08/25 04:01:22;;;;;;;9.13;4.32;;;;;;;23.08;79.12;99354.03;4939288;28;20499;-87
2023/08/25 04:03:49;;;;;;;7.63;4.43;;;;;;;23.06;78.81;99353.41;4889481;28;20063;-88
2023/08/25 04:06:17;;;;;;;10.48;4.90;;;;;;;23.05;79.34;99357.16;4952199;28;20046;-89
2023/08/25 04:08:43;;;;;;;8.40;4.10;;;;;;;23.01;79.21;99359.50;4905294;28;20063;-80
2023/08/25 04:11:10;;;;;;;8.65;4.78;;;;;;;23.03;79.39;99370.94;4935189;28;20048;-79
2023/08/25 04:13:37;;;;;;;8.73;5.07;;;;;;;23.01;79.46;99373.06;4944963;28;20062;-80
2023/08/25 04:16:04;;;;;;;8.27;4.72;;;;;;;22.98;79.63;99365.38;4920852;28;20051;-79
2023/08/25 04:18:31;;;;;;;8.68;5.20;;;;;;;22.98;79.62;99359.97;4930041;28;20087;-79
2023/08/25 04:20:57;;;;;;;8.60;6.10;;;;;;;23.00;79.59;99365.13;4918628;29;20051;-79
2023/08/25 04:23:28;;;;;;;12.48;7.88;;;;;;;22.97;79.75;99358.31;4920165;28;20051;-86
2023/08/25 04:25:56;;;;;;;11.85;8.18;;;;;;;22.93;79.53;99365.22;4911902;28;20051;-87
2023/08/25 04:28:25;;;;;;;13.02;8.65;;;;;;;22.89;79.77;99367.53;4932208;28;20582;-87
2023/08/25 04:30:55;;;;;;;12.35;8.55;;;;;;;22.91;79.45;99368.13;4951061;28;20124;-87
2023/08/25 04:33:31;;;;;;;12.18;8.65;;;;;;;22.90;79.99;99377.31;4920928;28;20518;-87
2023/08/25 04:35:59;;;;;;;13.88;8.20;;;;;;;22.90;80.22;99369.19;4926860;28;20075;-86
2023/08/25 04:38:26;;;;;;;16.23;8.45;;;;;;;22.91;79.96;99367.31;4911896;28;20051;-88
2023/08/25 04:40:52;;;;;;;12.40;8.55;;;;;;;22.87;80.00;99366.97;4919088;28;20048;-87
2023/08/25 04:43:21;;;;;;;16.13;8.70;;;;;;;22.87;79.87;99372.38;4898121;28;20554;-86
2023/08/25 04:45:48;;;;;;;9.73;8.43;;;;;;;22.87;79.96;99374.22;4885285;28;20563;-87
2023/08/25 04:48:15;;;;;;;10.45;8.00;;;;;;;22.84;80.17;99361.97;4934326;28;20119;-88
2023/08/25 04:50:42;;;;;;;10.25;7.47;;;;;;;22.85;80.33;99347.41;4921035;28;20044;-86
2023/08/25 04:53:09;;;;;;;10.32;8.63;;;;;;;22.85;80.23;99349.28;4913918;28;20454;-87
2023/08/25 04:55:36;;;;;;;11.85;9.02;;;;;;;22.83;80.35;99352.22;4914527;28;20043;-87
2023/08/25 04:58:03;;;;;;;12.00;8.75;;;;;;;22.86;80.51;99340.09;4949196;28;20080;-86
2023/08/25 05:00:30;;;;;;;13.32;9.13;;;;;;;22.82;80.70;99342.44;4908097;28;20145;-87
2023/08/25 05:02:57;;;;;;;11.55;8.55;;;;;;;22.84;80.86;99353.03;4920697;28;20071;-85
2023/08/25 05:05:25;;;;;;;11.32;8.18;;;;;;;22.84;80.89;99375.50;4949907;28;20160;-85
2023/08/25 05:07:54;;;;;;;10.98;7.97;;;;;;;22.83;80.49;99397.41;4910057;29;20519;-85
2023/08/25 05:10:21;;;;;;;15.25;8.80;;;;;;;22.85;80.54;99422.38;4909924;28;20468;-85
2023/08/25 05:12:48;;;;;;;15.38;8.77;;;;;;;22.82;81.03;99448.03;4920883;28;20052;-85
2023/08/25 05:15:15;;;;;;;11.85;8.48;;;;;;;22.75;81.21;99431.84;4948362;28;20054;-85
2023/08/25 05:17:42;;;;;;;13.93;8.88;;;;;;;22.76;81.28;99417.25;4906817;28;20058;-85
2023/08/25 05:20:11;;;;;;;11.82;8.60;;;;;;;22.81;81.37;99421.16;4941421;28;20122;-85
2023/08/25 05:22:37;;;;;;;10.93;8.27;;;;;;;22.85;81.84;99422.38;4936506;28;20059;-88
2023/08/25 05:25:05;;;;;;;12.38;9.20;;;;;;;22.85;81.38;99417.78;4913059;28;20142;-91
2023/08/25 05:27:32;;;;;;;10.23;7.15;;;;;;;22.82;81.30;99415.53;4909811;28;20051;-89
2023/08/25 05:29:59;;;;;;;12.07;7.88;;;;;;;22.85;81.48;99425.91;4894175;28;20111;-87
2023/08/25 05:32:26;;;;;;;12.30;8.15;;;;;;;22.89;81.72;99434.41;4909963;29;20055;-88
2023/08/25 05:35:07;;;;;;;11.63;8.27;;;;;;;22.94;82.43;99421.81;4927741;28;20122;-87
2023/08/25 05:37:35;;;;;;;11.75;8.02;;;;;;;23.00;82.23;99417.44;4941222;28;20479;-88
2023/08/25 05:40:02;;;;;;;9.82;7.75;;;;;;;23.06;81.98;99411.09;4934661;28;20047;-86
2023/08/25 05:42:32;;;;;;;9.23;7.53;;;;;;;23.04;82.00;99402.38;4909300;28;20092;-86
2023/08/25 05:44:58;;;;;;;15.13;7.97;;;;;;;23.08;82.59;99413.59;4916485;28;20059;-87
2023/08/25 05:47:26;;;;;;;11.40;8.18;;;;;;;23.09;82.12;99410.63;4930438;28;20047;-87
2023/08/25 05:49:53;;;;;;;12.25;8.07;;;;;;;23.12;82.24;99398.53;4946239;28;20065;-87
2023/08/25 05:52:22;;;;;;;8.25;7.18;;;;;;;23.17;82.91;99407.63;4911759;29;20520;-88
2023/08/25 05:54:49;;;;;;;12.43;7.78;;;;;;;23.17;82.85;99423.88;4953528;28;20525;-88
2023/08/25 05:57:16;;;;;;;11.55;7.90;;;;;;;23.13;83.30;99484.97;4934212;28;20118;-88
2023/08/25 05:59:42;;;;;;;8.65;7.68;;;;;;;23.09;83.14;99499.19;4915652;28;20062;-87
2023/08/25 06:02:09;;;;;;;9.25;7.40;;;;;;;23.02;83.22;99537.16;4954327;28;20499;-88
2023/08/25 06:04:36;;;;;;;11.88;6.85;;;;;;;23.03;83.54;99517.19;4908202;28;20035;-87
2023/08/25 06:07:03;;;;;;;11.30;7.13;;;;;;;23.01;83.66;99502.22;4931714;28;20051;-88
2023/08/25 06:09:30;;;;;;;17.63;8.80;;;;;;;23.01;84.09;99488.66;4925964;28;20662;-88
2023/08/25 06:11:57;;;;;;;16.42;9.02;;;;;;;23.02;84.90;99485.72;4914001;28;20051;-84
2023/08/25 06:14:23;;;;;;;13.68;7.32;;;;;;;23.02;85.30;99474.06;4915131;28;20055;-87
2023/08/25 06:16:51;;;;;;;11.13;7.03;;;;;;;23.02;85.86;99501.97;4956732;28;20039;-87
2023/08/25 06:19:17;;;;;;;7.10;6.20;;;;;;;23.00;86.17;99509.50;4954027;28;20051;-87
2023/08/25 06:21:44;;;;;;;9.68;6.32;;;;;;;23.02;86.23;99525.50;4916554;28;20721;-87
2023/08/25 06:24:11;;;;;;;13.52;7.40;;;;;;;22.96;86.25;99548.88;4941621;28;20062;-88
2023/08/25 06:26:38;;;;;;;11.98;6.38;;;;;;;22.93;86.44;99560.97;4941264;28;20126;-87
2023/08/25 06:29:04;;;;;;;14.43;7.75;;;;;;;22.91;86.43;99571.19;4936715;28;20482;-87
2023/08/25 06:31:33;;;;;;;15.00;8.10;;;;;;;22.93;86.48;99633.28;4937117;28;20782;-88
2023/08/25 06:34:02;;;;;;;8.32;6.45;;;;;;;22.96;86.97;99651.78;4928760;28;20158;-87
2023/08/25 06:36:30;;;;;;;9.82;6.60;;;;;;;23.01;86.35;99633.00;4937332;28;20047;-86
2023/08/25 06:38:56;;;;;;;7.35;5.82;;;;;;;22.96;85.73;99614.69;4941201;28;20128;-87
2023/08/25 06:41:24;;;;;;;8.75;6.65;;;;;;;22.99;85.58;99596.38;4902824;29;20040;-86
2023/08/25 06:43:51;;;;;;;7.53;5.90;;;;;;;22.99;85.88;99604.50;4920569;28;20153;-87
2023/08/25 06:46:18;;;;;;;8.90;6.28;;;;;;;22.98;85.67;99609.09;4920133;28;20044;-86
2023/08/25 06:48:45;;;;;;;10.60;6.50;;;;;;;22.98;86.10;99595.56;4921636;28;20035;-87
2023/08/25 06:51:12;;;;;;;9.57;6.60;;;;;;;22.96;86.00;99576.78;4921882;28;20114;-87
2023/08/25 06:53:39;;;;;;;9.10;6.13;;;;;;;22.94;86.22;99556.38;4930554;28;20051;-87
2023/08/25 06:56:06;;;;;;;10.80;6.03;;;;;;;22.94;86.69;99529.31;4926952;28;20399;-86
2023/08/25 06:58:33;;;;;;;10.93;5.82;;;;;;;22.95;86.33;99509.31;4933680;28;20514;-86
2023/08/25 07:01:00;;;;;;;9.38;5.78;;;;;;;22.92;86.72;99474.56;4936222;28;20137;-87
2023/08/25 07:03:27;;;;;;;8.43;5.78;;;;;;;22.91;86.91;99478.31;4948917;28;20125;-86
2023/08/25 07:05:58;;;;;;;10.23;5.78;;;;;;;22.89;86.52;99481.25;4922549;28;20043;-86
2023/08/25 07:08:28;;;;;;;11.15;5.90;;;;;;;22.89;86.56;99497.50;4923067;28;20048;-87
2023/08/25 07:10:54;;;;;;;10.48;6.35;;;;;;;22.89;87.20;99508.31;4924423;28;20399;-86
2023/08/25 07:13:21;;;;;;;10.15;5.70;;;;;;;22.88;87.42;99506.66;4935308;28;20114;-87
2023/08/25 07:15:49;;;;;;;9.27;6.03;;;;;;;22.89;87.34;99511.03;4928845;28;20043;-87
2023/08/25 07:18:16;;;;;;;8.80;5.32;;;;;;;22.88;87.15;99514.78;4925562;28;20102;-86
2023/08/25 07:20:42;;;;;;;13.13;5.88;;;;;;;22.85;87.62;99509.84;4911436;28;20515;-86
2023/08/25 07:23:09;;;;;;;8.77;5.80;;;;;;;22.86;87.58;99494.41;4923705;28;20050;-86
2023/08/25 07:25:37;;;;;;;5.47;4.95;;;;;;;22.85;87.10;99499.00;4938862;28;20189;-86
2023/08/25 07:28:04;;;;;;;8.27;5.40;;;;;;;22.86;87.26;99491.72;4940449;28;20130;-85
2023/08/25 07:30:31;;;;;;;10.20;5.03;;;;;;;22.85;87.39;99474.66;4920129;28;22422;-82
2023/08/25 07:32:58;;;;;;;10.57;6.05;;;;;;;22.83;87.35;99482.16;4937297;28;20043;-86
2023/08/25 07:35:25;;;;;;;14.45;5.80;;;;;;;22.82;87.41;99474.25;4920096;28;20491;-85
2023/08/25 07:37:53;;;;;;;12.95;5.53;;;;;;;22.84;87.54;99475.69;4939820;28;20054;-86
2023/08/25 07:40:21;;;;;;;11.60;5.20;;;;;;;22.84;87.81;99478.38;4920198;29;20051;-86
2023/08/25 07:42:49;;;;;;;7.07;4.75;;;;;;;22.83;87.39;99456.97;4931897;28;20047;-86
2023/08/25 07:45:16;;;;;;;6.80;4.50;;;;;;;22.85;87.74;99474.66;4925817;28;20052;-85
2023/08/25 07:47:43;;;;;;;7.57;4.70;;;;;;;22.85;87.82;99473.81;4914703;28;20047;-86
2023/08/25 07:50:10;;;;;;;10.00;4.85;;;;;;;22.85;87.85;99465.69;4923730;28;20062;-86
2023/08/25 07:52:36;;;;;;;10.52;4.85;;;;;;;22.83;87.92;99465.91;4937724;28;20511;-85
2023/08/25 07:55:04;;;;;;;9.95;5.13;;;;;;;22.84;87.87;99477.56;4929426;28;20047;-86
2023/08/25 07:57:32;;;;;;;12.52;5.28;;;;;;;22.85;87.84;99496.31;4925731;28;20043;-86
2023/08/25 07:59:59;;;;;;;8.45;4.43;;;;;;;22.83;87.84;99503.00;4926233;28;20051;-86
2023/08/25 08:02:26;;;;;;;9.43;5.03;;;;;;;22.86;87.93;99519.59;4927479;28;20121;-86
2023/08/25 08:04:53;;;;;;;10.30;4.90;;;;;;;22.88;87.76;99535.63;4927388;28;20118;-86
2023/08/25 08:07:19;;;;;;;8.02;4.72;;;;;;;22.88;87.52;99544.56;4907188;28;20062;-85
2023/08/25 08:09:46;;;;;;;8.25;4.50;;;;;;;22.91;88.13;99544.13;4923332;28;20039;-86
2023/08/25 08:12:13;;;;;;;8.13;4.25;;;;;;;22.93;87.71;99557.44;4912865;28;20043;-86
2023/08/25 08:14:40;;;;;;;6.13;4.88;;;;;;;22.93;87.17;99544.72;4937121;28;20058;-85
2023/08/25 08:17:13;;;;;;;6.97;4.85;;;;;;;22.93;87.59;99549.34;4909508;28;20711;-85
2023/08/25 08:19:40;;;;;;;11.43;4.30;;;;;;;22.93;87.39;99560.97;4895073;28;20138;-86
2023/08/25 08:22:07;;;;;;;8.75;4.47;;;;;;;22.94;87.70;99561.81;4936047;28;20050;-86
2023/08/25 08:24:34;;;;;;;9.43;4.68;;;;;;;22.98;88.18;99568.47;4913284;28;20051;-86
2023/08/25 08:27:19;;;;;;;6.43;4.30;;;;;;;23.00;88.32;99552.84;4926044;28;20126;-85
2023/08/25 08:29:47;;;;;;;8.35;4.50;;;;;;;23.04;88.12;99558.63;4921248;28;20084;-86
2023/08/25 08:32:14;;;;;;;11.13;4.43;;;;;;;23.05;88.76;99562.97;4934874;28;20515;-84
2023/08/25 08:34:41;;;;;;;7.60;4.47;;;;;;;23.06;88.86;99559.22;4930078;28;20048;-85
2023/08/25 08:37:07;;;;;;;8.27;4.25;;;;;;;23.06;88.97;99551.94;4906728;29;20043;-85
2023/08/25 08:39:37;;;;;;;10.68;5.00;;;;;;;23.08;88.85;99546.31;4925359;28;20061;-85
2023/08/25 08:42:11;;;;;;;8.38;5.20;;;;;;;23.09;88.99;99539.81;4911799;28;20836;-85
2023/08/25 08:44:44;;;;;;;8.35;5.38;;;;;;;23.08;88.88;99540.88;4916383;29;20601;-85
2023/08/25 08:47:11;;;;;;;10.00;5.35;;;;;;;23.07;89.01;99540.03;4925453;28;20044;-86
2023/08/25 08:49:38;;;;;;;6.85;4.20;;;;;;;23.08;88.83;99541.69;4934692;28;20048;-85
2023/08/25 08:52:05;;;;;;;8.57;4.30;;;;;;;23.09;88.57;99545.22;4922952;28;20051;-86
2023/08/25 08:54:35;;;;;;;5.18;3.75;;;;;;;23.06;88.56;99546.50;4937540;28;20055;-85
2023/08/25 08:57:03;;;;;;;7.53;4.60;;;;;;;23.06;89.05;99548.41;4935447;28;20126;-84
2023/08/25 08:59:30;;;;;;;4.75;3.47;;;;;;;23.05;89.06;99553.00;4921985;28;20043;-85
2023/08/25 09:01:58;;;;;;;7.30;3.60;;;;;;;23.04;89.07;99542.38;4945106;28;20046;-86
2023/08/25 09:04:25;;;;;;;5.15;3.72;;;;;;;23.05;89.39;99525.06;4926365;28;20815;-85
2023/08/25 09:06:54;;;;;;;8.57;3.72;;;;;;;23.04;89.44;99523.41;4947939;28;20047;-86
2023/08/25 09:09:21;;;;;;;6.72;3.83;;;;;;;23.05;89.58;99514.22;4909537;28;20054;-85
2023/08/25 09:11:48;;;;;;;4.72;3.10;;;;;;;23.06;89.90;99510.47;4953269;28;20043;-85
2023/08/25 09:14:28;;;;;;;5.28;4.00;;;;;;;23.00;89.97;99506.81;4909816;29;20052;-86
2023/08/25 09:17:02;;;;;;;4.85;3.63;;;;;;;23.05;89.90;99503.41;4942772;28;20046;-86
2023/08/25 09:19:33;;;;;;;5.22;3.00;;;;;;;23.09;89.41;99481.06;4941973;28;20094;-85
2023/08/25 09:22:01;;;;;;;5.13;3.70;;;;;;;23.14;90.00;99470.38;4924241;29;20047;-85
2023/08/25 09:24:29;;;;;;;6.65;3.53;;;;;;;23.16;90.20;99449.31;4931669;28;20095;-86
2023/08/25 09:26:56;;;;;;;4.60;3.70;;;;;;;23.18;89.98;99435.56;4942353;28;20039;-85
2023/08/25 09:29:23;;;;;;;5.22;4.00;;;;;;;23.18;89.98;99430.13;4931202;28;20463;-85
2023/08/25 09:31:50;;;;;;;4.78;3.65;;;;;;;23.24;89.83;99433.81;4915977;28;20078;-85
2023/08/25 09:34:16;;;;;;;9.10;4.28;;;;;;;23.25;90.24;99427.31;4928638;28;20552;-85
2023/08/25 09:36:52;;;;;;;5.78;3.63;;;;;;;23.24;90.11;99434.63;4909531;28;20047;-86
2023/08/25 09:39:19;;;;;;;5.68;3.50;;;;;;;23.30;90.23;99420.16;4943311;28;20071;-85
2023/08/25 09:41:46;;;;;;;7.20;3.88;;;;;;;23.30;89.26;99432.88;4945178;28;20054;-83
2023/08/25 09:44:14;;;;;;;6.55;4.22;;;;;;;23.34;89.87;99436.78;4942339;28;20052;-85
2023/08/25 09:46:41;;;;;;;6.60;3.63;;;;;;;23.35;89.58;99414.88;4930975;28;20078;-86
2023/08/25 09:49:09;;;;;;;5.75;3.67;;;;;;;23.37;89.94;99407.34;4935816;28;20047;-84
2023/08/25 09:51:39;;;;;;;5.30;3.40;;;;;;;23.38;89.43;99397.34;4924814;28;20523;-85
2023/08/25 09:54:09;;;;;;;7.78;3.58;;;;;;;23.39;89.50;99388.16;4930765;28;20047;-85
2023/08/25 09:56:37;;;;;;;7.28;4.18;;;;;;;23.40;89.88;99365.41;4940952;28;20133;-85
2023/08/25 09:59:05;;;;;;;5.72;3.20;;;;;;;23.39;89.75;99377.31;4946157;28;20126;-86
2023/08/25 10:01:33;;;;;;;7.90;4.03;;;;;;;23.38;89.20;99395.47;4944613;28;20496;-86
2023/08/25 10:04:01;;;;;;;5.28;3.75;;;;;;;23.37;89.14;99423.59;4951790;28;20054;-83
2023/08/25 10:06:30;;;;;;;5.90;3.70;;;;;;;23.40;89.98;99417.72;4953557;28;20050;-86
2023/08/25 10:09:00;;;;;;;7.15;3.75;;;;;;;23.40;90.39;99422.31;4926804;28;20040;-85
2023/08/25 10:11:29;;;;;;;6.50;3.10;;;;;;;23.43;90.72;99435.41;4909080;29;20047;-86
2023/08/25 10:13:56;;;;;;;4.40;3.88;;;;;;;23.47;90.77;99430.38;4945872;28;20102;-85
2023/08/25 10:16:25;;;;;;;8.73;3.70;;;;;;;23.49;90.89;99420.13;4924497;28;20098;-83
2023/08/25 10:18:55;;;;;;;8.52;3.33;;;;;;;23.50;90.60;99419.88;4944531;28;20043;-85
2023/08/25 10:21:24;;;;;;;3.85;3.50;;;;;;;23.53;90.23;99438.38;4907090;28;20469;-86
2023/08/25 10:23:53;;;;;;;5.05;3.50;;;;;;;23.57;90.60;99450.44;4927395;28;20455;-86
2023/08/25 10:26:21;;;;;;;7.03;3.42;;;;;;;23.61;90.94;99478.75;4941663;28;20111;-86
2023/08/25 10:28:49;;;;;;;6.05;4.05;;;;;;;23.62;91.12;99466.84;4933519;28;20597;-85
2023/08/25 10:31:15;;;;;;;4.07;3.00;;;;;;;23.65;90.99;99457.41;4937485;28;20134;-86
2023/08/25 10:33:50;;;;;;;4.32;3.50;;;;;;;23.65;91.30;99459.31;4936203;28;20494;-86
2023/08/25 10:36:19;;;;;;;5.15;3.45;;;;;;;23.70;91.46;99449.41;4908013;28;20051;-83
2023/08/25 10:38:54;;;;;;;8.75;3.85;;;;;;;23.69;91.20;99450.47;4938189;28;20046;-86
2023/08/25 10:41:23;;;;;;;5.55;3.13;;;;;;;23.71;90.90;99448.38;4937397;28;20080;-86
2023/08/25 10:43:51;;;;;;;5.63;3.65;;;;;;;23.73;90.85;99450.88;4953020;28;20150;-86
2023/08/25 10:46:20;;;;;;;5.43;3.25;;;;;;;23.74;90.92;99466.09;4922110;28;20170;-86
2023/08/25 10:49:07;;;;;;;5.05;3.67;;;;;;;23.70;90.90;99452.13;4913371;29;20043;-86
2023/08/25 10:51:37;;;;;;;5.32;3.70;;;;;;;23.74;90.44;99441.69;4926013;28;20051;-85
2023/08/25 10:54:04;;;;;;;4.80;3.67;;;;;;;23.75;91.00;99433.31;4923602;28;20075;-86
2023/08/25 10:56:32;;;;;;;3.67;2.97;;;;;;;23.78;90.93;99432.84;4911295;28;20998;-85
2023/08/25 10:59:05;;;;;;;6.05;3.10;;;;;;;23.78;91.04;99432.84;4941930;28;20055;-86
2023/08/25 11:01:38;;;;;;;5.32;2.95;;;;;;;23.82;91.15;99433.22;4941337;28;20047;-84
2023/08/25 11:04:06;;;;;;;4.35;3.35;;;;;;;23.85;91.59;99443.59;4912923;28;20428;-86
2023/08/25 11:06:47;;;;;;;4.00;2.97;;;;;;;23.87;91.62;99452.34;4910002;28;20550;-87
2023/08/25 11:09:32;;;;;;;4.38;3.00;;;;;;;23.91;91.22;99447.25;4924942;28;20102;-85
2023/08/25 11:12:04;;;;;;;3.25;2.75;;;;;;;23.97;90.33;99447.16;4926255;28;20126;-86
2023/08/25 11:14:36;;;;;;;;;;;;;;;23.83;89.75;99449.25;4929932;28;20063;-87
2023/08/25 11:17:05;;;;;;;4.82;3.40;;;;;;;23.99;90.14;99442.34;4914500;28;19922;-87
2023/08/25 11:19:35;;;;;;;6.70;3.20;;;;;;;24.05;90.91;99449.53;4914679;28;20391;-87
2023/08/25 11:22:08;;;;;;;4.45;3.67;;;;;;;24.07;90.57;99451.19;4923744;28;20476;-86
2023/08/25 11:24:35;;;;;;;4.75;3.33;;;;;;;24.11;89.67;99441.53;4903333;28;20075;-87
2023/08/25 11:27:07;;;;;;;5.57;3.20;;;;;;;24.13;89.11;99444.84;4907768;28;20411;-86
2023/08/25 11:29:33;;;;;;;4.15;3.08;;;;;;;24.14;89.32;99431.03;4924909;28;20090;-86
2023/08/25 11:32:01;;;;;;;5.35;3.20;;;;;;;24.18;89.04;99437.66;4938406;28;20063;-86
2023/08/25 11:34:34;;;;;;;8.57;3.05;;;;;;;24.18;88.20;99436.81;4938595;28;21005;-87
2023/08/25 11:37:00;;;;;;;6.03;3.05;;;;;;;24.23;88.40;99432.34;4950676;28;20054;-86